sensor_id;sensor_type;location;lat;lon;timestamp;P1;durP1;ratioP1;P2;durP2;ratioP2
39370;SDS011;25099;51.946;4.838;2023-04-24T00:01:23;2.50;;;0.60;;
39370;SDS011;25099;51.946;4.838;2023-04-24T00:03:49;0.82;;;0.57;;
39370;SDS011;25099;51.946;4.838;2023-04-24T00:06:15;1.92;;;0.80;;
39370;SDS011;25099;51.946;4.838;2023-04-24T00:08:42;4.95;;;0.73;;
39370;SDS011;25099;51.946;4.838;2023-04-24T00:11:07;2.85;;;1.33;;
39370;SDS011;25099;51.946;4.838;2023-04-24T00:13:34;2.47;;;0.70;;
39370;SDS011;25099;51.946;4.838;2023-04-24T00:16:00;3.00;;;1.05;;
39370;SDS011;25099;51.946;4.838;2023-04-24T00:18:26;2.78;;;0.90;;
39370;SDS011;25099;51.946;4.838;2023-04-24T00:20:51;3.05;;;0.88;;
39370;SDS011;25099;51.946;4.838;2023-04-24T00:23:17;2.30;;;1.05;;
39370;SDS011;25099;51.946;4.838;2023-04-24T00:25:42;2.20;;;1.08;;
39370;SDS011;25099;51.946;4.838;2023-04-24T00:28:08;4.53;;;1.33;;
39370;SDS011;25099;51.946;4.838;2023-04-24T00:30:34;3.05;;;1.00;;
39370;SDS011;25099;51.946;4.838;2023-04-24T00:32:59;4.30;;;1.30;;
39370;SDS011;25099;51.946;4.838;2023-04-24T00:35:25;2.90;;;1.10;;
39370;SDS011;25099;51.946;4.838;2023-04-24T00:37:50;1.98;;;1.15;;
39370;SDS011;25099;51.946;4.838;2023-04-24T00:40:16;3.10;;;1.42;;
39370;SDS011;25099;51.946;4.838;2023-04-24T00:42:41;2.55;;;1.70;;
39370;SDS011;25099;51.946;4.838;2023-04-24T00:45:08;2.22;;;1.50;;
39370;SDS011;25099;51.946;4.838;2023-04-24T00:47:34;4.05;;;1.48;;
39370;SDS011;25099;51.946;4.838;2023-04-24T00:50:01;2.65;;;1.75;;
39370;SDS011;25099;51.946;4.838;2023-04-24T00:52:28;3.83;;;1.50;;
39370;SDS011;25099;51.946;4.838;2023-04-24T00:54:56;5.03;;;1.70;;
39370;SDS011;25099;51.946;4.838;2023-04-24T00:57:21;3.13;;;1.75;;
39370;SDS011;25099;51.946;4.838;2023-04-24T00:59:48;5.50;;;1.55;;
39370;SDS011;25099;51.946;4.838;2023-04-24T01:02:14;1.65;;;1.40;;
39370;SDS011;25099;51.946;4.838;2023-04-24T01:04:40;1.70;;;1.60;;
39370;SDS011;25099;51.946;4.838;2023-04-24T01:07:06;3.78;;;1.83;;
39370;SDS011;25099;51.946;4.838;2023-04-24T01:09:35;7.75;;;1.83;;
39370;SDS011;25099;51.946;4.838;2023-04-24T01:12:02;2.88;;;2.17;;
39370;SDS011;25099;51.946;4.838;2023-04-24T01:14:28;2.40;;;2.13;;
39370;SDS011;25099;51.946;4.838;2023-04-24T01:16:55;3.83;;;2.10;;
39370;SDS011;25099;51.946;4.838;2023-04-24T01:19:22;2.90;;;2.05;;
39370;SDS011;25099;51.946;4.838;2023-04-24T01:21:48;2.90;;;2.17;;
39370;SDS011;25099;51.946;4.838;2023-04-24T01:24:17;2.70;;;1.98;;
39370;SDS011;25099;51.946;4.838;2023-04-24T01:26:44;2.97;;;2.00;;
39370;SDS011;25099;51.946;4.838;2023-04-24T01:29:10;2.78;;;2.58;;
39370;SDS011;25099;51.946;4.838;2023-04-24T01:31:36;2.92;;;2.25;;
39370;SDS011;25099;51.946;4.838;2023-04-24T01:34:02;3.33;;;2.58;;
39370;SDS011;25099;51.946;4.838;2023-04-24T01:36:28;2.33;;;1.60;;
39370;SDS011;25099;51.946;4.838;2023-04-24T01:38:54;2.70;;;2.50;;
39370;SDS011;25099;51.946;4.838;2023-04-24T01:41:20;3.25;;;2.50;;
39370;SDS011;25099;51.946;4.838;2023-04-24T01:43:46;3.17;;;2.88;;
39370;SDS011;25099;51.946;4.838;2023-04-24T01:46:13;3.42;;;2.80;;
39370;SDS011;25099;51.946;4.838;2023-04-24T01:48:39;3.65;;;3.40;;
39370;SDS011;25099;51.946;4.838;2023-04-24T01:51:06;4.22;;;3.83;;
39370;SDS011;25099;51.946;4.838;2023-04-24T01:53:31;3.35;;;3.15;;
39370;SDS011;25099;51.946;4.838;2023-04-24T01:55:57;3.53;;;2.70;;
39370;SDS011;25099;51.946;4.838;2023-04-24T01:58:23;3.42;;;2.65;;
39370;SDS011;25099;51.946;4.838;2023-04-24T02:00:48;3.58;;;3.30;;
39370;SDS011;25099;51.946;4.838;2023-04-24T02:03:14;2.42;;;2.22;;
39370;SDS011;25099;51.946;4.838;2023-04-24T02:05:39;2.80;;;2.55;;
39370;SDS011;25099;51.946;4.838;2023-04-24T02:08:08;3.20;;;2.50;;
39370;SDS011;25099;51.946;4.838;2023-04-24T02:10:33;3.83;;;3.00;;
39370;SDS011;25099;51.946;4.838;2023-04-24T02:12:59;5.20;;;3.33;;
39370;SDS011;25099;51.946;4.838;2023-04-24T02:15:25;3.30;;;3.00;;
39370;SDS011;25099;51.946;4.838;2023-04-24T02:17:51;3.75;;;3.22;;
39370;SDS011;25099;51.946;4.838;2023-04-24T02:20:16;3.05;;;2.72;;
39370;SDS011;25099;51.946;4.838;2023-04-24T02:22:42;6.13;;;3.72;;
39370;SDS011;25099;51.946;4.838;2023-04-24T02:25:08;5.13;;;3.47;;
39370;SDS011;25099;51.946;4.838;2023-04-24T02:27:33;8.93;;;4.55;;
39370;SDS011;25099;51.946;4.838;2023-04-24T02:29:59;4.43;;;4.03;;
39370;SDS011;25099;51.946;4.838;2023-04-24T02:32:25;3.72;;;3.42;;
39370;SDS011;25099;51.946;4.838;2023-04-24T02:34:51;4.13;;;3.72;;
39370;SDS011;25099;51.946;4.838;2023-04-24T02:37:16;3.97;;;3.33;;
39370;SDS011;25099;51.946;4.838;2023-04-24T02:39:42;4.93;;;3.47;;
39370;SDS011;25099;51.946;4.838;2023-04-24T02:42:07;5.88;;;3.75;;
39370;SDS011;25099;51.946;4.838;2023-04-24T02:44:33;3.40;;;2.13;;
39370;SDS011;25099;51.946;4.838;2023-04-24T02:46:59;2.92;;;1.90;;
39370;SDS011;25099;51.946;4.838;2023-04-24T02:49:24;3.13;;;2.42;;
39370;SDS011;25099;51.946;4.838;2023-04-24T02:51:50;4.45;;;2.58;;
39370;SDS011;25099;51.946;4.838;2023-04-24T02:54:16;3.17;;;2.83;;
39370;SDS011;25099;51.946;4.838;2023-04-24T02:56:42;3.25;;;2.63;;
39370;SDS011;25099;51.946;4.838;2023-04-24T02:59:07;4.05;;;3.35;;
39370;SDS011;25099;51.946;4.838;2023-04-24T03:01:34;4.32;;;3.63;;
39370;SDS011;25099;51.946;4.838;2023-04-24T03:04:00;3.10;;;2.90;;
39370;SDS011;25099;51.946;4.838;2023-04-24T03:06:25;3.97;;;3.58;;
39370;SDS011;25099;51.946;4.838;2023-04-24T03:08:52;4.25;;;3.13;;
39370;SDS011;25099;51.946;4.838;2023-04-24T03:11:17;2.65;;;2.13;;
39370;SDS011;25099;51.946;4.838;2023-04-24T03:13:43;3.78;;;2.30;;
39370;SDS011;25099;51.946;4.838;2023-04-24T03:16:08;1.40;;;1.30;;
39370;SDS011;25099;51.946;4.838;2023-04-24T03:18:34;2.40;;;1.42;;
39370;SDS011;25099;51.946;4.838;2023-04-24T03:21:00;1.30;;;1.20;;
39370;SDS011;25099;51.946;4.838;2023-04-24T03:23:25;1.27;;;1.17;;
39370;SDS011;25099;51.946;4.838;2023-04-24T03:25:51;1.25;;;1.10;;
39370;SDS011;25099;51.946;4.838;2023-04-24T03:28:17;0.80;;;0.80;;
39370;SDS011;25099;51.946;4.838;2023-04-24T03:30:42;1.17;;;1.08;;
39370;SDS011;25099;51.946;4.838;2023-04-24T03:33:08;1.25;;;1.00;;
39370;SDS011;25099;51.946;4.838;2023-04-24T03:35:34;1.60;;;1.10;;
39370;SDS011;25099;51.946;4.838;2023-04-24T03:38:01;1.25;;;0.80;;
39370;SDS011;25099;51.946;4.838;2023-04-24T03:40:26;1.45;;;1.00;;
39370;SDS011;25099;51.946;4.838;2023-04-24T03:42:54;1.63;;;1.33;;
39370;SDS011;25099;51.946;4.838;2023-04-24T03:45:19;2.03;;;0.90;;
39370;SDS011;25099;51.946;4.838;2023-04-24T03:47:45;4.00;;;1.02;;
39370;SDS011;25099;51.946;4.838;2023-04-24T03:50:11;1.50;;;0.90;;
39370;SDS011;25099;51.946;4.838;2023-04-24T03:52:36;0.52;;;0.40;;
39370;SDS011;25099;51.946;4.838;2023-04-24T03:55:02;0.50;;;0.40;;
39370;SDS011;25099;51.946;4.838;2023-04-24T03:57:27;1.10;;;0.40;;
39370;SDS011;25099;51.946;4.838;2023-04-24T03:59:53;2.67;;;0.90;;
39370;SDS011;25099;51.946;4.838;2023-04-24T04:02:19;1.52;;;0.35;;
39370;SDS011;25099;51.946;4.838;2023-04-24T04:04:44;1.25;;;0.32;;
39370;SDS011;25099;51.946;4.838;2023-04-24T04:07:10;0.85;;;0.50;;
39370;SDS011;25099;51.946;4.838;2023-04-24T04:09:36;0.63;;;0.55;;
39370;SDS011;25099;51.946;4.838;2023-04-24T04:12:01;0.70;;;0.52;;
39370;SDS011;25099;51.946;4.838;2023-04-24T04:14:27;1.85;;;0.80;;
39370;SDS011;25099;51.946;4.838;2023-04-24T04:16:53;1.65;;;0.82;;
39370;SDS011;25099;51.946;4.838;2023-04-24T04:19:19;1.38;;;1.02;;
39370;SDS011;25099;51.946;4.838;2023-04-24T04:21:44;1.25;;;0.73;;
39370;SDS011;25099;51.946;4.838;2023-04-24T04:24:10;1.33;;;0.68;;
39370;SDS011;25099;51.946;4.838;2023-04-24T04:26:36;2.75;;;0.82;;
39370;SDS011;25099;51.946;4.838;2023-04-24T04:29:03;1.20;;;0.73;;
39370;SDS011;25099;51.946;4.838;2023-04-24T04:31:28;1.17;;;0.70;;
39370;SDS011;25099;51.946;4.838;2023-04-24T04:33:55;3.22;;;0.90;;
39370;SDS011;25099;51.946;4.838;2023-04-24T04:36:20;1.45;;;0.82;;
39370;SDS011;25099;51.946;4.838;2023-04-24T04:38:46;3.53;;;0.80;;
39370;SDS011;25099;51.946;4.838;2023-04-24T04:41:11;1.67;;;0.90;;
39370;SDS011;25099;51.946;4.838;2023-04-24T04:43:37;1.30;;;1.00;;
39370;SDS011;25099;51.946;4.838;2023-04-24T04:46:04;1.85;;;0.80;;
39370;SDS011;25099;51.946;4.838;2023-04-24T04:48:30;0.80;;;0.80;;
39370;SDS011;25099;51.946;4.838;2023-04-24T04:50:56;6.13;;;1.10;;
39370;SDS011;25099;51.946;4.838;2023-04-24T04:53:22;2.22;;;0.73;;
39370;SDS011;25099;51.946;4.838;2023-04-24T04:55:48;1.20;;;0.57;;
39370;SDS011;25099;51.946;4.838;2023-04-24T04:58:14;0.75;;;0.65;;
39370;SDS011;25099;51.946;4.838;2023-04-24T05:00:40;0.95;;;0.70;;
39370;SDS011;25099;51.946;4.838;2023-04-24T05:03:06;1.95;;;0.65;;
39370;SDS011;25099;51.946;4.838;2023-04-24T05:05:31;3.38;;;1.00;;
39370;SDS011;25099;51.946;4.838;2023-04-24T05:07:57;3.03;;;1.10;;
39370;SDS011;25099;51.946;4.838;2023-04-24T05:10:23;1.27;;;0.70;;
39370;SDS011;25099;51.946;4.838;2023-04-24T05:12:48;3.50;;;0.93;;
39370;SDS011;25099;51.946;4.838;2023-04-24T05:15:14;2.63;;;0.80;;
39370;SDS011;25099;51.946;4.838;2023-04-24T05:17:40;0.75;;;0.50;;
39370;SDS011;25099;51.946;4.838;2023-04-24T05:20:06;1.08;;;0.50;;
39370;SDS011;25099;51.946;4.838;2023-04-24T05:22:32;0.60;;;0.60;;
39370;SDS011;25099;51.946;4.838;2023-04-24T05:24:57;4.88;;;0.95;;
39370;SDS011;25099;51.946;4.838;2023-04-24T05:27:23;1.90;;;1.27;;
39370;SDS011;25099;51.946;4.838;2023-04-24T05:29:49;2.47;;;0.80;;
39370;SDS011;25099;51.946;4.838;2023-04-24T05:32:15;3.78;;;1.90;;
39370;SDS011;25099;51.946;4.838;2023-04-24T05:34:41;6.25;;;2.08;;
39370;SDS011;25099;51.946;4.838;2023-04-24T05:37:07;3.53;;;1.67;;
39370;SDS011;25099;51.946;4.838;2023-04-24T05:39:34;2.78;;;1.70;;
39370;SDS011;25099;51.946;4.838;2023-04-24T05:42:01;2.85;;;1.90;;
39370;SDS011;25099;51.946;4.838;2023-04-24T05:44:28;5.75;;;3.20;;
39370;SDS011;25099;51.946;4.838;2023-04-24T05:46:53;15.55;;;5.00;;
39370;SDS011;25099;51.946;4.838;2023-04-24T05:49:20;5.43;;;4.07;;
39370;SDS011;25099;51.946;4.838;2023-04-24T05:51:46;10.52;;;5.63;;
39370;SDS011;25099;51.946;4.838;2023-04-24T05:54:11;7.93;;;5.60;;
39370;SDS011;25099;51.946;4.838;2023-04-24T05:56:37;8.15;;;5.72;;
39370;SDS011;25099;51.946;4.838;2023-04-24T05:59:03;13.02;;;6.90;;
39370;SDS011;25099;51.946;4.838;2023-04-24T06:01:29;18.98;;;8.35;;
39370;SDS011;25099;51.946;4.838;2023-04-24T06:03:56;16.33;;;7.53;;
39370;SDS011;25099;51.946;4.838;2023-04-24T06:06:21;14.00;;;8.60;;
39370;SDS011;25099;51.946;4.838;2023-04-24T06:08:48;15.45;;;8.52;;
39370;SDS011;25099;51.946;4.838;2023-04-24T06:11:14;12.50;;;8.38;;
39370;SDS011;25099;51.946;4.838;2023-04-24T06:13:39;17.08;;;8.85;;
39370;SDS011;25099;51.946;4.838;2023-04-24T06:16:05;9.73;;;7.75;;
39370;SDS011;25099;51.946;4.838;2023-04-24T06:18:31;12.20;;;8.15;;
39370;SDS011;25099;51.946;4.838;2023-04-24T06:20:57;20.40;;;8.05;;
39370;SDS011;25099;51.946;4.838;2023-04-24T06:23:22;23.33;;;9.45;;
39370;SDS011;25099;51.946;4.838;2023-04-24T06:25:48;20.50;;;8.82;;
39370;SDS011;25099;51.946;4.838;2023-04-24T06:28:13;20.15;;;8.32;;
39370;SDS011;25099;51.946;4.838;2023-04-24T06:30:39;13.52;;;7.45;;
39370;SDS011;25099;51.946;4.838;2023-04-24T06:33:04;16.08;;;7.82;;
39370;SDS011;25099;51.946;4.838;2023-04-24T06:35:30;15.98;;;8.00;;
39370;SDS011;25099;51.946;4.838;2023-04-24T06:37:55;20.70;;;7.90;;
39370;SDS011;25099;51.946;4.838;2023-04-24T06:40:21;16.27;;;7.00;;
39370;SDS011;25099;51.946;4.838;2023-04-24T06:42:47;14.55;;;7.25;;
39370;SDS011;25099;51.946;4.838;2023-04-24T06:45:13;16.10;;;7.07;;
39370;SDS011;25099;51.946;4.838;2023-04-24T06:47:38;18.75;;;6.55;;
39370;SDS011;25099;51.946;4.838;2023-04-24T06:50:04;24.63;;;7.18;;
39370;SDS011;25099;51.946;4.838;2023-04-24T06:52:30;22.63;;;6.15;;
39370;SDS011;25099;51.946;4.838;2023-04-24T06:55:01;22.40;;;6.20;;
39370;SDS011;25099;51.946;4.838;2023-04-24T06:57:27;21.57;;;5.87;;
39370;SDS011;25099;51.946;4.838;2023-04-24T06:59:53;21.17;;;5.07;;
39370;SDS011;25099;51.946;4.838;2023-04-24T07:02:19;19.70;;;5.35;;
39370;SDS011;25099;51.946;4.838;2023-04-24T07:04:45;23.77;;;5.78;;
39370;SDS011;25099;51.946;4.838;2023-04-24T07:07:12;21.40;;;6.43;;
39370;SDS011;25099;51.946;4.838;2023-04-24T07:09:39;21.85;;;5.55;;
39370;SDS011;25099;51.946;4.838;2023-04-24T07:12:07;25.55;;;5.30;;
39370;SDS011;25099;51.946;4.838;2023-04-24T07:14:33;23.75;;;5.78;;
39370;SDS011;25099;51.946;4.838;2023-04-24T07:16:58;18.27;;;4.88;;
39370;SDS011;25099;51.946;4.838;2023-04-24T07:19:24;20.90;;;4.65;;
39370;SDS011;25099;51.946;4.838;2023-04-24T07:21:50;14.15;;;4.70;;
39370;SDS011;25099;51.946;4.838;2023-04-24T07:24:15;16.60;;;4.45;;
39370;SDS011;25099;51.946;4.838;2023-04-24T07:26:41;59.08;;;6.65;;
39370;SDS011;25099;51.946;4.838;2023-04-24T07:29:07;12.38;;;3.95;;
39370;SDS011;25099;51.946;4.838;2023-04-24T07:31:33;18.52;;;3.60;;
39370;SDS011;25099;51.946;4.838;2023-04-24T07:33:58;14.43;;;4.07;;
39370;SDS011;25099;51.946;4.838;2023-04-24T07:36:24;13.13;;;3.65;;
39370;SDS011;25099;51.946;4.838;2023-04-24T07:38:50;20.05;;;3.90;;
39370;SDS011;25099;51.946;4.838;2023-04-24T07:41:17;19.63;;;3.97;;
39370;SDS011;25099;51.946;4.838;2023-04-24T07:43:42;23.98;;;4.53;;
39370;SDS011;25099;51.946;4.838;2023-04-24T07:46:09;24.67;;;4.80;;
39370;SDS011;25099;51.946;4.838;2023-04-24T07:48:34;14.88;;;3.40;;
39370;SDS011;25099;51.946;4.838;2023-04-24T07:51:01;19.05;;;3.97;;
39370;SDS011;25099;51.946;4.838;2023-04-24T07:53:26;20.25;;;3.95;;
39370;SDS011;25099;51.946;4.838;2023-04-24T07:55:52;31.55;;;5.20;;
39370;SDS011;25099;51.946;4.838;2023-04-24T07:58:20;20.88;;;4.03;;
39370;SDS011;25099;51.946;4.838;2023-04-24T08:00:46;18.25;;;3.88;;
39370;SDS011;25099;51.946;4.838;2023-04-24T08:03:12;21.02;;;3.95;;
39370;SDS011;25099;51.946;4.838;2023-04-24T08:05:38;15.02;;;3.17;;
39370;SDS011;25099;51.946;4.838;2023-04-24T08:08:03;23.30;;;3.45;;
39370;SDS011;25099;51.946;4.838;2023-04-24T08:10:29;16.92;;;3.35;;
39370;SDS011;25099;51.946;4.838;2023-04-24T08:12:55;16.20;;;3.10;;
39370;SDS011;25099;51.946;4.838;2023-04-24T08:15:21;15.75;;;3.38;;
39370;SDS011;25099;51.946;4.838;2023-04-24T08:17:46;18.73;;;4.40;;
39370;SDS011;25099;51.946;4.838;2023-04-24T08:20:12;21.60;;;3.58;;
39370;SDS011;25099;51.946;4.838;2023-04-24T08:22:41;12.55;;;3.38;;
39370;SDS011;25099;51.946;4.838;2023-04-24T08:25:08;18.83;;;3.55;;
39370;SDS011;25099;51.946;4.838;2023-04-24T08:27:35;18.20;;;3.38;;
39370;SDS011;25099;51.946;4.838;2023-04-24T08:30:01;8.85;;;2.45;;
39370;SDS011;25099;51.946;4.838;2023-04-24T08:32:28;15.68;;;2.80;;
39370;SDS011;25099;51.946;4.838;2023-04-24T08:34:54;22.30;;;4.63;;
39370;SDS011;25099;51.946;4.838;2023-04-24T08:37:25;13.30;;;3.38;;
39370;SDS011;25099;51.946;4.838;2023-04-24T08:39:51;14.30;;;3.10;;
39370;SDS011;25099;51.946;4.838;2023-04-24T08:42:17;18.85;;;3.05;;
39370;SDS011;25099;51.946;4.838;2023-04-24T08:44:44;15.18;;;2.35;;
39370;SDS011;25099;51.946;4.838;2023-04-24T08:47:10;11.38;;;2.67;;
39370;SDS011;25099;51.946;4.838;2023-04-24T08:49:37;12.77;;;2.75;;
39370;SDS011;25099;51.946;4.838;2023-04-24T08:52:04;15.30;;;2.70;;
39370;SDS011;25099;51.946;4.838;2023-04-24T08:54:30;14.35;;;2.55;;
39370;SDS011;25099;51.946;4.838;2023-04-24T08:57:00;13.90;;;3.03;;
39370;SDS011;25099;51.946;4.838;2023-04-24T08:59:26;5.03;;;2.35;;
39370;SDS011;25099;51.946;4.838;2023-04-24T09:01:53;7.13;;;2.42;;
39370;SDS011;25099;51.946;4.838;2023-04-24T09:04:20;20.70;;;2.63;;
39370;SDS011;25099;51.946;4.838;2023-04-24T09:06:49;6.55;;;2.20;;
39370;SDS011;25099;51.946;4.838;2023-04-24T09:09:22;6.90;;;2.38;;
39370;SDS011;25099;51.946;4.838;2023-04-24T09:11:54;6.55;;;1.83;;
39370;SDS011;25099;51.946;4.838;2023-04-24T09:14:20;4.93;;;2.20;;
39370;SDS011;25099;51.946;4.838;2023-04-24T09:16:48;10.75;;;2.33;;
39370;SDS011;25099;51.946;4.838;2023-04-24T09:19:13;6.65;;;2.25;;
39370;SDS011;25099;51.946;4.838;2023-04-24T09:21:39;5.43;;;1.67;;
39370;SDS011;25099;51.946;4.838;2023-04-24T09:24:07;10.07;;;2.58;;
39370;SDS011;25099;51.946;4.838;2023-04-24T09:26:42;8.30;;;2.40;;
39370;SDS011;25099;51.946;4.838;2023-04-24T09:29:13;3.88;;;1.58;;
39370;SDS011;25099;51.946;4.838;2023-04-24T09:31:42;10.10;;;1.40;;
39370;SDS011;25099;51.946;4.838;2023-04-24T09:34:09;6.63;;;1.55;;
39370;SDS011;25099;51.946;4.838;2023-04-24T09:36:35;5.10;;;1.70;;
39370;SDS011;25099;51.946;4.838;2023-04-24T09:39:05;11.50;;;1.92;;
39370;SDS011;25099;51.946;4.838;2023-04-24T09:41:35;6.80;;;1.20;;
39370;SDS011;25099;51.946;4.838;2023-04-24T09:44:12;5.82;;;1.50;;
39370;SDS011;25099;51.946;4.838;2023-04-24T09:46:54;4.85;;;1.40;;
39370;SDS011;25099;51.946;4.838;2023-04-24T09:49:23;3.35;;;1.58;;
39370;SDS011;25099;51.946;4.838;2023-04-24T09:51:50;8.18;;;2.50;;
39370;SDS011;25099;51.946;4.838;2023-04-24T09:54:17;9.23;;;1.40;;
39370;SDS011;25099;51.946;4.838;2023-04-24T09:56:45;12.43;;;1.45;;
39370;SDS011;25099;51.946;4.838;2023-04-24T09:59:16;3.08;;;1.17;;
39370;SDS011;25099;51.946;4.838;2023-04-24T10:01:43;6.97;;;1.25;;
39370;SDS011;25099;51.946;4.838;2023-04-24T10:04:17;4.80;;;1.25;;
39370;SDS011;25099;51.946;4.838;2023-04-24T10:06:44;7.40;;;1.45;;
39370;SDS011;25099;51.946;4.838;2023-04-24T10:09:10;6.20;;;1.73;;
39370;SDS011;25099;51.946;4.838;2023-04-24T10:11:37;3.00;;;1.40;;
39370;SDS011;25099;51.946;4.838;2023-04-24T10:14:28;8.10;;;1.58;;
39370;SDS011;25099;51.946;4.838;2023-04-24T10:16:55;5.75;;;1.15;;
39370;SDS011;25099;51.946;4.838;2023-04-24T10:19:25;23.20;;;1.80;;
39370;SDS011;25099;51.946;4.838;2023-04-24T10:21:51;7.28;;;1.45;;
39370;SDS011;25099;51.946;4.838;2023-04-24T10:24:19;2.90;;;0.95;;
39370;SDS011;25099;51.946;4.838;2023-04-24T10:26:48;4.93;;;0.82;;
39370;SDS011;25099;51.946;4.838;2023-04-24T10:29:15;7.07;;;1.05;;
39370;SDS011;25099;51.946;4.838;2023-04-24T10:31:43;4.15;;;0.88;;
39370;SDS011;25099;51.946;4.838;2023-04-24T10:34:10;9.13;;;1.50;;
39370;SDS011;25099;51.946;4.838;2023-04-24T10:36:38;5.38;;;0.98;;
39370;SDS011;25099;51.946;4.838;2023-04-24T10:39:08;8.38;;;2.83;;
39370;SDS011;25099;51.946;4.838;2023-04-24T10:41:36;9.77;;;1.75;;
39370;SDS011;25099;51.946;4.838;2023-04-24T10:44:06;9.23;;;1.48;;
39370;SDS011;25099;51.946;4.838;2023-04-24T10:48:59;6.63;;;1.48;;
39370;SDS011;25099;51.946;4.838;2023-04-24T10:57:13;7.63;;;1.40;;
39370;SDS011;25099;51.946;4.838;2023-04-24T10:59:46;3.53;;;1.02;;
39370;SDS011;25099;51.946;4.838;2023-04-24T11:02:14;2.35;;;1.02;;
39370;SDS011;25099;51.946;4.838;2023-04-24T11:04:40;8.00;;;1.27;;
39370;SDS011;25099;51.946;4.838;2023-04-24T11:07:08;4.15;;;1.02;;
39370;SDS011;25099;51.946;4.838;2023-04-24T11:09:34;12.00;;;1.95;;
39370;SDS011;25099;51.946;4.838;2023-04-24T11:12:08;6.40;;;1.30;;
39370;SDS011;25099;51.946;4.838;2023-04-24T11:17:37;9.05;;;1.73;;
39370;SDS011;25099;51.946;4.838;2023-04-24T11:20:05;6.25;;;1.60;;
39370;SDS011;25099;51.946;4.838;2023-04-24T11:22:36;7.05;;;1.02;;
39370;SDS011;25099;51.946;4.838;2023-04-24T11:25:04;7.28;;;2.10;;
39370;SDS011;25099;51.946;4.838;2023-04-24T11:27:32;6.72;;;1.80;;
39370;SDS011;25099;51.946;4.838;2023-04-24T11:30:05;7.47;;;1.40;;
39370;SDS011;25099;51.946;4.838;2023-04-24T11:35:05;8.95;;;1.67;;
39370;SDS011;25099;51.946;4.838;2023-04-24T11:37:43;10.77;;;1.55;;
39370;SDS011;25099;51.946;4.838;2023-04-24T11:40:11;7.45;;;1.25;;
39370;SDS011;25099;51.946;4.838;2023-04-24T11:42:42;6.73;;;0.87;;
39370;SDS011;25099;51.946;4.838;2023-04-24T11:45:13;5.03;;;1.38;;
39370;SDS011;25099;51.946;4.838;2023-04-24T11:47:40;8.13;;;1.58;;
39370;SDS011;25099;51.946;4.838;2023-04-24T11:50:08;2.05;;;0.68;;
39370;SDS011;25099;51.946;4.838;2023-04-24T11:52:39;5.80;;;0.80;;
39370;SDS011;25099;51.946;4.838;2023-04-24T11:55:07;2.10;;;0.70;;
39370;SDS011;25099;51.946;4.838;2023-04-24T11:57:48;2.33;;;0.93;;
39370;SDS011;25099;51.946;4.838;2023-04-24T12:00:28;9.25;;;0.85;;
39370;SDS011;25099;51.946;4.838;2023-04-24T12:03:10;7.82;;;1.42;;
39370;SDS011;25099;51.946;4.838;2023-04-24T12:05:37;5.32;;;1.88;;
39370;SDS011;25099;51.946;4.838;2023-04-24T12:08:03;4.35;;;1.02;;
39370;SDS011;25099;51.946;4.838;2023-04-24T12:10:30;6.93;;;1.75;;
39370;SDS011;25099;51.946;4.838;2023-04-24T12:12:57;8.65;;;1.60;;
39370;SDS011;25099;51.946;4.838;2023-04-24T12:15:23;9.32;;;1.65;;
39370;SDS011;25099;51.946;4.838;2023-04-24T12:17:53;5.90;;;1.42;;
39370;SDS011;25099;51.946;4.838;2023-04-24T12:20:26;7.72;;;1.60;;
39370;SDS011;25099;51.946;4.838;2023-04-24T12:22:54;7.13;;;1.58;;
39370;SDS011;25099;51.946;4.838;2023-04-24T12:25:23;22.83;;;1.83;;
39370;SDS011;25099;51.946;4.838;2023-04-24T12:28:17;3.63;;;1.58;;
39370;SDS011;25099;51.946;4.838;2023-04-24T12:30:43;4.65;;;1.58;;
39370;SDS011;25099;51.946;4.838;2023-04-24T12:33:16;7.22;;;1.88;;
39370;SDS011;25099;51.946;4.838;2023-04-24T12:35:43;8.85;;;1.63;;
39370;SDS011;25099;51.946;4.838;2023-04-24T12:38:09;6.97;;;1.70;;
39370;SDS011;25099;51.946;4.838;2023-04-24T12:40:38;7.10;;;2.38;;
39370;SDS011;25099;51.946;4.838;2023-04-24T12:43:12;10.57;;;1.83;;
39370;SDS011;25099;51.946;4.838;2023-04-24T12:45:39;6.70;;;1.98;;
39370;SDS011;25099;51.946;4.838;2023-04-24T12:48:05;9.35;;;1.98;;
39370;SDS011;25099;51.946;4.838;2023-04-24T12:50:30;5.90;;;1.67;;
39370;SDS011;25099;51.946;4.838;2023-04-24T12:52:56;5.75;;;1.73;;
39370;SDS011;25099;51.946;4.838;2023-04-24T12:55:21;13.90;;;2.33;;
39370;SDS011;25099;51.946;4.838;2023-04-24T12:57:47;6.13;;;1.80;;
39370;SDS011;25099;51.946;4.838;2023-04-24T13:00:13;9.32;;;2.20;;
39370;SDS011;25099;51.946;4.838;2023-04-24T13:02:38;13.15;;;2.08;;
39370;SDS011;25099;51.946;4.838;2023-04-24T13:05:05;18.55;;;3.50;;
39370;SDS011;25099;51.946;4.838;2023-04-24T13:07:31;14.25;;;2.97;;
39370;SDS011;25099;51.946;4.838;2023-04-24T13:09:56;15.88;;;3.22;;
39370;SDS011;25099;51.946;4.838;2023-04-24T13:12:22;5.35;;;2.22;;
39370;SDS011;25099;51.946;4.838;2023-04-24T13:14:51;9.65;;;3.05;;
39370;SDS011;25099;51.946;4.838;2023-04-24T13:17:17;10.75;;;3.28;;
39370;SDS011;25099;51.946;4.838;2023-04-24T13:19:43;10.32;;;2.75;;
39370;SDS011;25099;51.946;4.838;2023-04-24T13:22:09;12.13;;;2.75;;
39370;SDS011;25099;51.946;4.838;2023-04-24T13:24:36;12.70;;;3.33;;
39370;SDS011;25099;51.946;4.838;2023-04-24T13:27:02;14.02;;;2.45;;
39370;SDS011;25099;51.946;4.838;2023-04-24T13:29:28;12.80;;;3.10;;
39370;SDS011;25099;51.946;4.838;2023-04-24T13:31:54;8.63;;;2.65;;
39370;SDS011;25099;51.946;4.838;2023-04-24T13:34:21;14.35;;;2.88;;
39370;SDS011;25099;51.946;4.838;2023-04-24T13:36:47;10.23;;;2.63;;
39370;SDS011;25099;51.946;4.838;2023-04-24T13:39:13;10.05;;;3.15;;
39370;SDS011;25099;51.946;4.838;2023-04-24T13:41:39;8.15;;;2.65;;
39370;SDS011;25099;51.946;4.838;2023-04-24T13:44:05;18.55;;;4.28;;
39370;SDS011;25099;51.946;4.838;2023-04-24T13:46:31;12.88;;;3.03;;
39370;SDS011;25099;51.946;4.838;2023-04-24T13:48:57;16.52;;;4.00;;
39370;SDS011;25099;51.946;4.838;2023-04-24T13:51:23;14.90;;;3.72;;
39370;SDS011;25099;51.946;4.838;2023-04-24T13:53:53;12.63;;;2.45;;
39370;SDS011;25099;51.946;4.838;2023-04-24T13:56:18;10.27;;;2.58;;
39370;SDS011;25099;51.946;4.838;2023-04-24T13:58:45;10.00;;;3.00;;
39370;SDS011;25099;51.946;4.838;2023-04-24T14:01:11;9.68;;;3.08;;
39370;SDS011;25099;51.946;4.838;2023-04-24T14:03:38;10.88;;;2.65;;
39370;SDS011;25099;51.946;4.838;2023-04-24T14:06:03;11.15;;;3.00;;
39370;SDS011;25099;51.946;4.838;2023-04-24T14:08:29;16.10;;;3.22;;
39370;SDS011;25099;51.946;4.838;2023-04-24T14:10:55;10.40;;;3.35;;
39370;SDS011;25099;51.946;4.838;2023-04-24T14:13:20;10.32;;;2.50;;
39370;SDS011;25099;51.946;4.838;2023-04-24T14:15:46;10.38;;;2.42;;
39370;SDS011;25099;51.946;4.838;2023-04-24T14:18:12;23.35;;;3.63;;
39370;SDS011;25099;51.946;4.838;2023-04-24T14:20:37;10.85;;;2.53;;
39370;SDS011;25099;51.946;4.838;2023-04-24T14:23:03;17.65;;;2.60;;
39370;SDS011;25099;51.946;4.838;2023-04-24T14:25:29;8.20;;;2.55;;
39370;SDS011;25099;51.946;4.838;2023-04-24T14:27:55;10.27;;;2.95;;
39370;SDS011;25099;51.946;4.838;2023-04-24T14:30:20;11.25;;;3.25;;
39370;SDS011;25099;51.946;4.838;2023-04-24T14:32:46;8.95;;;3.50;;
39370;SDS011;25099;51.946;4.838;2023-04-24T14:35:12;11.82;;;3.67;;
39370;SDS011;25099;51.946;4.838;2023-04-24T14:37:37;10.55;;;3.05;;
39370;SDS011;25099;51.946;4.838;2023-04-24T14:40:06;10.38;;;2.95;;
39370;SDS011;25099;51.946;4.838;2023-04-24T14:42:32;14.18;;;2.95;;
39370;SDS011;25099;51.946;4.838;2023-04-24T14:44:58;12.15;;;2.97;;
39370;SDS011;25099;51.946;4.838;2023-04-24T14:47:24;17.83;;;4.20;;
39370;SDS011;25099;51.946;4.838;2023-04-24T14:49:50;12.25;;;4.38;;
39370;SDS011;25099;51.946;4.838;2023-04-24T14:52:16;16.25;;;3.58;;
39370;SDS011;25099;51.946;4.838;2023-04-24T14:54:41;15.10;;;3.53;;